Share

Ashford, AL

South Dothan (KALDOTHA9) Elev 308 ft | 31.18 °N, 85.37 °W | Change Station
Active Advisory: Areal Flood Watch

Current weather conditions updated 3 minutes ago

Overcast
Overcast
63.5 °F
Feels Like 63.5 °F
N
3.2
Wind Variable Wind from SE
Sunrise 6:10 AM
Sunset 7:10 PM
Moon Waning Gibbous

Tomorrow is forecast to be Much Cooler than today. Periods of heavy rain.

Pressure 30.25 in
Visibility 10.0 miles
Clouds Overcast 2600 ft
Dew Point 55 °F
Humidity 75%
Rainfall 0.00 in
Snow Depth Not available.
UV 0 out of 16
Pollen 9.60 out of 12
Air Quality Not available.
Flu Activity Sporadic
METAR KDHN 180253Z AUTO 09008G16KT 10SM OVC026 17/12 A3025 RMK AO2 SLP241 T01720122 55002

More Conditions Fewer Conditions

Pressure 30.25 in
Visibility 10.0 miles
Clouds Overcast 2600 ft
Dew Point 55 °F
Humidity 75%
Rainfall 0.00 in
Snow Depth Not available.
UV 0 out of 16
Pollen 9.60 out of 12
Air Quality Not available.
Flu Activity Sporadic
METAR KDHN 180253Z AUTO 09008G16KT 10SM OVC026 17/12 A3025 RMK AO2 SLP241 T01720122 55002

More Conditions Fewer Conditions

10-Day Forecast

Almanac

Astronomy

Apr. 17, 2014 Rise Set
Actual Time 6:10 AM CDT 7:10 PM CDT
Civil Twilight 5:45 AM CDT 7:35 PM CDT
Nautical Twilight 5:16 AM CDT 8:05 PM CDT
Astronomical Twilight 4:45 AM CDT 8:35 PM CDT
Moon 9:47 PM CDT (4/17) 7:48 AM CDT (4/17)
Length of Visible Light 13h 49m
Length of Day
13h 00m
Tomorrow will be 1m 47s longer.
Waning Gibbous, 91% of the Moon is Illuminated
Today
Waning Gibbous
Apr 22
Last Quarter
Apr 29
New
May 6
First Quarter
May 14
Full

Today's Extremes

State Highs State Lows

Community

  • SUNRISE THROUGH THE TREES.
    SUNRISE THROUGH THE TREES.
  • Dog Wood Blossoms
    Dog Wood Blossoms
  • Morning Light
    Morning Light
  • New Day
    New Day
  • Lake Michigan Sunrise
    Lake Michigan Sunrise

WunderPhotos

Upload Photos

1,702,234 photos uploaded!

WunderBlogs® & News

Nearby

Snow Depth

Station Depth Elevation
No new snow has been reported.

Coastal Water Temperatures

Place Temperature
No Stations Reporting

Earthquake Activity

City Distance Mag. Time & Date
No recent earthquake activity has been reported nearby.
Minimum magnitude displayed is 2.5.

Nearby Weather Stations

Station Location Temp. Dew Point Humidity Wind Precip. Elev Updated Type
South Dothan, Dothan, AL 63.5 °F 55 °F 75% SE  at  3.2 mph - / hr 308 ft 10:03 PM CDT Normal
Dothan, AL 63.0 °F 57 °F 81% ENE  at  0.0 mph 0.00 in / hr 289 ft 10:05 PM CDT Rapid Fire

Show More Stations Show Fewer Stations

What do you think?

We're not finished. Please let us know what you like, what you don't like, and what you are still missing.